Terminal Aerodrome Forecast
Issued by NWS Pittsburgh, PA

Current Version | Previous Version | Text Only | Print | Product List | Glossary Off
Versions: 1 2 3 4 5 6 7 8 9 10 11 12 13 14 15 16 17 18 19 20 21 22 23 24 25 26 27 28

000
FTUS41 KPBZ 221100
TAFPIT
TAF
KPIT 221131Z 2212/2318 25006KT 6SM -RA OVC040
     FM221400 21010G18KT 6SM -RA BKN020
     FM221900 33012G22KT P6SM BKN035
     FM230200 33010KT P6SM BKN040
     FM230700 33012G22KT P6SM OVC015
     FM231500 33012G18KT P6SM BKN015=

USA.gov is the U.S. government's official web portal to all federal, state and local government web resources and services.